Alpha, Ohio
Current Conditions -  °F | °C
As of 8:58 AM on Tuesday 27 Jan 2015 (Local Time) from KFFO Reporting Station
Overcast Overcast  
Wind Chill: 14°   Ceiling: 13000
Heat Index: 14°   Visibility: 10mi
Dew Point: 10°   Wind: 2mph
Humidity: 83%   Direction: 80°E
Pressure: 30.05"   Gusts: NA
Location:  39.71°N, 84.02°W
Report Text: KFFO 271358Z 08002KT 10SM OVC130 M10/M12 A3005 RMK AO2A SLP194 T11011125
Loading
Personal Weather Stations






























Interactive Weather Map New forecast layout! Learn more

10-Day Weather Forecast

Advertisements
Track Severe Weather on mobile